METAR AND TAF INFORMATION
METAR FOR LIRU
ADDS - METARS form results

(1920 UTC 14 August 2020)
Data provider http://aviationweather.gov/metar/data/
 
Forecast for: LIRU (ROME/URBE (IT-AF, IT)
Text: TAF LIRU 141400Z 1415/1424 23007KT 9999 FEW030
Forecast period: 1500 UTC 14 August 2020 to 0000 UTC 15 August 2020
Forecast type: FROM: standard forecast or significant change
Winds: from the SW (230 degrees) at 8 MPH (7 knots; 3.6 m/s)
Visibility: 6 or more miles (10+ km)
Ceiling: at least 12,000 feet AGL
Clouds: few clouds at 3000 feet AGL
Weather: no significant weather forecast for this period

 AIRPORT MAP

 RUNWAY INFORMATION
Runway 16 Runway length 3543 ft Runway width 98 ft
Runway elevation 55 ft Runway displaced threshold 361 ft Runway heading 160
Runway 34 Runway length 3543 ft Runway width 98 ft
Runway elevation 55 ft Runway displaced threshold 820 ft Runway heading 340

 AIRPORT FREQUENCIES
Type GND Name GND Frequency 122.7 MHZ
Type TWR Name TWR Frequency 123.8 MHZ

 AIRPORT NEAR NAVIGATION AIDS
Type NDB Name Urbe Frequency 285 KHZ



Powered by Virtual Airlines Manager [v2.6.2]

Hosted by Utixo.it